createdAt,value
2023-05-16T00:00:42.245Z,34.44
2023-05-16T00:03:11.620Z,34.11
2023-05-16T00:05:38.682Z,34.18
2023-05-16T00:08:05.825Z,34.48
2023-05-16T00:10:32.792Z,34.59
2023-05-16T00:13:01.304Z,34.64
2023-05-16T00:15:29.422Z,34.43
2023-05-16T00:17:59.213Z,34.76
2023-05-16T00:20:27.578Z,34.70
2023-05-16T00:22:54.860Z,34.84
2023-05-16T00:25:22.244Z,34.72
2023-05-16T00:27:49.032Z,34.64
2023-05-16T00:30:16.305Z,34.45
2023-05-16T00:32:44.367Z,34.28
2023-05-16T00:35:11.870Z,34.56
2023-05-16T00:37:38.995Z,34.28
2023-05-16T00:40:06.969Z,39.88
2023-05-16T00:42:34.008Z,44.27
2023-05-16T00:45:00.763Z,42.29
2023-05-16T00:47:29.219Z,44.99
2023-05-16T00:49:56.486Z,44.57
2023-05-16T00:52:24.169Z,41.86
2023-05-16T00:54:51.650Z,40.95
2023-05-16T00:57:18.921Z,40.34
2023-05-16T00:59:46.571Z,39.96
2023-05-16T01:02:13.811Z,39.69
2023-05-16T01:04:41.371Z,39.48
2023-05-16T01:07:08.728Z,38.93
2023-05-16T01:09:35.563Z,39.44
2023-05-16T01:12:25.447Z,44.81
2023-05-16T01:14:59.353Z,45.45
2023-05-16T01:17:47.165Z,44.14
2023-05-16T01:20:32.638Z,46.41
2023-05-16T01:23:19.294Z,46.94
2023-05-16T01:25:53.256Z,47.30
2023-05-16T01:28:20.255Z,47.54
2023-05-16T01:30:47.205Z,47.66
2023-05-16T01:33:14.013Z,48.10
2023-05-16T01:35:46.751Z,48.51
2023-05-16T01:38:23.317Z,48.67
2023-05-16T01:41:21.028Z,48.10
2023-05-16T01:43:50.816Z,46.15
2023-05-16T01:46:29.925Z,44.21
2023-05-16T01:49:16.536Z,45.93
2023-05-16T01:51:51.200Z,49.43
2023-05-16T01:54:18.673Z,50.53
2023-05-16T01:56:52.003Z,50.85
2023-05-16T01:59:20.506Z,50.61
2023-05-16T02:01:47.631Z,51.42
2023-05-16T02:04:15.299Z,52.09
2023-05-16T02:06:42.317Z,52.16
2023-05-16T02:09:09.462Z,48.43
2023-05-16T02:11:39.824Z,43.97
2023-05-16T02:14:07.230Z,42.81
2023-05-16T02:16:34.098Z,42.25
2023-05-16T02:19:01.131Z,41.87
2023-05-16T02:21:28.047Z,41.76
2023-05-16T02:23:54.959Z,41.52
2023-05-16T02:26:22.148Z,41.41
2023-05-16T02:28:49.433Z,41.23
2023-05-16T02:31:32.867Z,40.78
2023-05-16T02:33:59.878Z,40.45
2023-05-16T02:36:27.217Z,40.30
2023-05-16T02:38:54.173Z,40.24
2023-05-16T02:41:22.551Z,40.06
2023-05-16T02:43:49.600Z,39.73
2023-05-16T02:46:24.544Z,39.65
2023-05-16T02:48:51.526Z,39.23
2023-05-16T02:51:20.218Z,39.18
2023-05-16T02:53:47.111Z,39.49
2023-05-16T02:56:14.420Z,39.57
2023-05-16T02:58:41.453Z,39.49
2023-05-16T03:01:08.724Z,39.17
2023-05-16T03:03:38.349Z,39.58
2023-05-16T03:06:05.649Z,39.38
2023-05-16T03:08:33.539Z,39.22
2023-05-16T03:11:00.681Z,39.26
2023-05-16T03:13:29.543Z,39.19
2023-05-16T03:15:58.976Z,39.04
2023-05-16T03:18:25.803Z,39.11
2023-05-16T03:20:52.544Z,39.39
2023-05-16T03:23:20.472Z,39.41
2023-05-16T03:25:47.457Z,39.49
2023-05-16T03:28:16.056Z,39.53
2023-05-16T03:30:42.811Z,39.42
2023-05-16T03:33:09.527Z,39.27
2023-05-16T03:35:37.247Z,39.17
2023-05-16T03:38:04.039Z,39.82
2023-05-16T03:40:30.913Z,40.95
2023-05-16T03:42:59.197Z,41.58
2023-05-16T03:45:26.192Z,41.80
2023-05-16T03:47:53.389Z,42.59
2023-05-16T03:50:20.201Z,42.83
2023-05-16T03:52:47.002Z,43.00
2023-05-16T03:55:14.601Z,42.93
2023-05-16T03:57:41.978Z,43.04
2023-05-16T04:00:10.560Z,43.46
2023-05-16T04:02:40.613Z,43.42
2023-05-16T04:05:08.814Z,43.58
2023-05-16T04:07:36.687Z,43.14
2023-05-16T04:10:04.077Z,42.64
2023-05-16T04:12:31.921Z,42.26
2023-05-16T04:14:59.230Z,42.11
2023-05-16T04:17:25.985Z,42.17
2023-05-16T04:19:52.728Z,42.70
2023-05-16T04:22:27.063Z,42.31
2023-05-16T04:24:53.862Z,41.95
2023-05-16T04:27:20.826Z,41.89
2023-05-16T04:29:47.638Z,41.49
2023-05-16T04:32:14.731Z,41.23
2023-05-16T04:34:44.641Z,41.29
2023-05-16T04:37:11.591Z,41.30
2023-05-16T04:39:38.534Z,41.47
2023-05-16T04:42:05.526Z,41.60
2023-05-16T04:44:32.212Z,41.24
2023-05-16T04:46:59.113Z,40.93
2023-05-16T04:49:26.012Z,41.07
2023-05-16T04:51:52.721Z,40.90
2023-05-16T04:54:19.439Z,40.99
2023-05-16T04:56:46.190Z,40.86
2023-05-16T04:59:12.932Z,40.48
2023-05-16T05:01:40.547Z,40.62
2023-05-16T05:04:07.334Z,40.76
2023-05-16T05:06:34.990Z,40.68
2023-05-16T05:09:01.817Z,40.43
2023-05-16T05:11:28.713Z,40.29
2023-05-16T05:13:56.079Z,40.40
2023-05-16T05:16:24.490Z,40.42
2023-05-16T05:18:51.321Z,40.73
2023-05-16T05:21:19.747Z,40.77
2023-05-16T05:23:48.647Z,40.53
2023-05-16T05:26:15.649Z,40.43
2023-05-16T05:28:47.792Z,40.11
2023-05-16T05:31:18.386Z,40.00
2023-05-16T05:33:45.881Z,39.89
2023-05-16T05:36:12.739Z,39.58
2023-05-16T05:38:39.661Z,39.33
2023-05-16T05:41:06.904Z,39.36
2023-05-16T05:43:36.372Z,39.46
2023-05-16T05:46:03.110Z,39.50
2023-05-16T05:48:31.870Z,39.20
2023-05-16T05:50:58.886Z,39.81
2023-05-16T05:53:25.645Z,39.28
2023-05-16T05:55:52.481Z,39.02
2023-05-16T05:58:20.981Z,39.38
2023-05-16T06:00:47.735Z,39.49
2023-05-16T06:03:14.806Z,39.50
2023-05-16T06:05:41.928Z,39.58
2023-05-16T06:08:08.745Z,39.10
2023-05-16T06:10:36.430Z,39.00
2023-05-16T06:13:03.231Z,39.14
2023-05-16T06:15:30.188Z,38.98
2023-05-16T06:17:57.578Z,39.05
2023-05-16T06:20:24.605Z,38.72
2023-05-16T06:22:51.503Z,38.51
2023-05-16T06:25:19.311Z,38.01
2023-05-16T06:27:46.662Z,37.85
2023-05-16T06:30:13.568Z,37.65
2023-05-16T06:32:41.044Z,37.56
2023-05-16T06:35:09.089Z,37.08
2023-05-16T06:37:36.398Z,36.39
2023-05-16T06:40:04.092Z,36.30
2023-05-16T06:42:31.803Z,36.00
2023-05-16T06:44:59.106Z,35.79
2023-05-16T06:47:26.376Z,35.08
2023-05-16T06:49:53.456Z,35.11
2023-05-16T06:52:21.421Z,35.34
2023-05-16T06:54:48.379Z,35.36
2023-05-16T06:57:15.942Z,34.42
2023-05-16T06:59:42.962Z,33.49
2023-05-16T07:02:10.871Z,32.93
2023-05-16T07:04:37.748Z,31.92
2023-05-16T07:07:07.077Z,31.45
2023-05-16T07:09:34.744Z,31.40
2023-05-16T07:12:02.726Z,31.33
2023-05-16T07:14:31.553Z,31.53
2023-05-16T07:16:58.328Z,31.23
2023-05-16T07:19:25.249Z,31.09
2023-05-16T07:21:52.094Z,30.77
2023-05-16T07:24:19.221Z,30.27
2023-05-16T07:26:46.853Z,30.31
2023-05-16T07:29:13.734Z,30.83
2023-05-16T07:31:40.953Z,30.99
2023-05-16T07:34:09.830Z,30.83
2023-05-16T07:36:36.741Z,31.04
2023-05-16T07:39:03.664Z,30.32
2023-05-16T07:41:30.873Z,31.24
2023-05-16T07:43:58.008Z,30.94
2023-05-16T07:46:25.647Z,30.78
2023-05-16T07:48:52.660Z,30.33
2023-05-16T07:51:19.599Z,30.54
2023-05-16T07:53:46.478Z,30.36
2023-05-16T07:56:13.285Z,30.90
2023-05-16T07:58:41.074Z,31.10
2023-05-16T08:01:08.280Z,31.15
2023-05-16T08:03:35.885Z,31.64
2023-05-16T08:06:03.122Z,32.03
2023-05-16T08:08:30.277Z,32.26
2023-05-16T08:10:57.054Z,31.93
2023-05-16T08:13:24.220Z,31.89
2023-05-16T08:15:51.965Z,31.77
2023-05-16T08:18:22.045Z,31.65
2023-05-16T08:20:49.337Z,31.21
2023-05-16T08:23:16.287Z,31.87
2023-05-16T08:25:43.183Z,31.91
2023-05-16T08:28:10.114Z,32.06
2023-05-16T08:30:36.886Z,32.07
2023-05-16T08:33:05.844Z,31.76
2023-05-16T08:35:34.795Z,31.01
2023-05-16T08:38:02.785Z,31.62
2023-05-16T08:40:30.883Z,33.96
2023-05-16T08:42:57.757Z,37.49
2023-05-16T08:45:24.592Z,40.84
2023-05-16T08:47:52.527Z,41.14
2023-05-16T08:50:19.686Z,42.34
2023-05-16T08:52:47.241Z,41.55
2023-05-16T08:55:14.128Z,39.66
2023-05-16T08:57:41.064Z,42.07
2023-05-16T09:00:11.314Z,41.84
2023-05-16T09:02:40.153Z,41.26
2023-05-16T09:05:09.297Z,39.76
2023-05-16T09:07:36.740Z,39.86
2023-05-16T09:10:06.275Z,38.75
2023-05-16T09:12:34.100Z,38.92
2023-05-16T09:15:03.275Z,38.53
2023-05-16T09:17:39.889Z,38.10
2023-05-16T09:20:11.300Z,38.54
2023-05-16T09:22:38.758Z,41.42
2023-05-16T09:25:08.624Z,39.00
2023-05-16T09:27:40.371Z,38.24
2023-05-16T09:30:08.376Z,37.10
2023-05-16T09:32:35.464Z,37.50
2023-05-16T09:35:03.268Z,38.71
2023-05-16T09:37:30.712Z,38.97
2023-05-16T09:39:57.640Z,38.12
2023-05-16T09:42:25.125Z,39.32
2023-05-16T09:44:53.757Z,39.59
2023-05-16T09:47:21.381Z,39.58
2023-05-16T09:49:52.300Z,38.42
2023-05-16T09:52:19.074Z,36.92
2023-05-16T09:54:48.806Z,38.46
2023-05-16T09:57:19.891Z,38.50
2023-05-16T09:59:46.980Z,38.63
2023-05-16T10:02:14.076Z,38.15
2023-05-16T10:04:41.833Z,37.52
2023-05-16T10:07:09.106Z,38.65
2023-05-16T10:09:36.625Z,38.12
2023-05-16T10:12:06.037Z,37.55
2023-05-16T10:14:34.304Z,37.17
2023-05-16T10:17:01.271Z,38.57
2023-05-16T10:19:30.160Z,39.35
2023-05-16T10:22:01.394Z,41.41
2023-05-16T10:24:39.738Z,41.98
2023-05-16T10:27:06.470Z,42.38
2023-05-16T10:29:43.010Z,41.81
2023-05-16T10:32:20.717Z,39.75
2023-05-16T10:34:47.764Z,38.90
2023-05-16T10:37:14.562Z,38.73
2023-05-16T10:39:42.257Z,40.19
2023-05-16T10:42:09.874Z,42.38
2023-05-16T10:44:38.327Z,42.92
2023-05-16T10:47:05.294Z,43.43
2023-05-16T10:49:32.159Z,43.85
2023-05-16T10:52:11.531Z,43.11
2023-05-16T10:54:39.857Z,41.79
2023-05-16T10:57:11.478Z,41.23
2023-05-16T10:59:42.968Z,42.61
2023-05-16T11:02:33.216Z,42.64
2023-05-16T11:05:01.417Z,42.06
2023-05-16T11:07:33.760Z,41.41
2023-05-16T11:10:10.651Z,38.91
2023-05-16T11:12:38.626Z,40.58
2023-05-16T11:15:28.349Z,40.33
2023-05-16T11:18:09.550Z,39.62
2023-05-16T11:20:38.071Z,40.10
2023-05-16T11:23:17.111Z,39.13
2023-05-16T11:25:58.037Z,39.24
2023-05-16T11:28:26.476Z,39.34
2023-05-16T11:30:56.902Z,39.41
2023-05-16T11:33:24.121Z,39.70
2023-05-16T11:36:22.198Z,39.64
2023-05-16T11:38:49.254Z,39.69
2023-05-16T11:41:17.190Z,39.33
2023-05-16T11:43:44.714Z,39.31
2023-05-16T11:46:15.629Z,39.71
2023-05-16T11:48:43.173Z,39.77
2023-05-16T11:51:10.290Z,38.52
2023-05-16T11:53:37.658Z,38.95
2023-05-16T11:56:06.669Z,38.88
2023-05-16T11:58:33.999Z,37.73
2023-05-16T12:01:03.818Z,38.26
2023-05-16T12:03:33.165Z,37.24
2023-05-16T12:06:00.341Z,37.87
2023-05-16T12:08:27.163Z,37.10
2023-05-16T12:10:54.008Z,36.36
2023-05-16T12:13:23.104Z,37.77
2023-05-16T12:15:50.863Z,38.49
2023-05-16T12:18:17.796Z,38.66
2023-05-16T12:21:14.026Z,38.29
2023-05-16T12:23:43.601Z,38.79
2023-05-16T12:26:10.396Z,39.17
2023-05-16T12:28:42.645Z,39.21
2023-05-16T12:31:30.241Z,39.83
2023-05-16T12:33:58.422Z,40.10
2023-05-16T12:36:25.833Z,39.25
2023-05-16T12:38:53.141Z,37.40
2023-05-16T12:41:24.524Z,38.95
2023-05-16T12:43:51.345Z,40.15
2023-05-16T12:46:19.192Z,39.95
2023-05-16T12:48:47.539Z,40.72
2023-05-16T12:51:17.242Z,40.93
2023-05-16T12:54:01.258Z,39.63
2023-05-16T12:56:39.517Z,39.37
2023-05-16T12:59:07.150Z,41.26
2023-05-16T13:01:35.547Z,41.80
2023-05-16T13:04:02.727Z,41.06
2023-05-16T13:06:39.657Z,41.38
2023-05-16T13:09:16.100Z,41.79
2023-05-16T13:11:43.811Z,41.86
2023-05-16T13:14:12.500Z,38.99
2023-05-16T13:16:41.473Z,39.53
2023-05-16T13:19:10.381Z,41.11
2023-05-16T13:21:46.753Z,41.69
2023-05-16T13:24:56.954Z,40.64
2023-05-16T13:27:23.660Z,40.09
2023-05-16T13:29:50.680Z,41.45
2023-05-16T13:32:18.418Z,40.22
2023-05-16T13:34:45.235Z,41.25
2023-05-16T13:37:12.085Z,41.83
2023-05-16T13:39:39.040Z,41.75
2023-05-16T13:42:05.845Z,41.49
2023-05-16T13:44:32.712Z,41.38
2023-05-16T13:46:59.495Z,42.28
2023-05-16T13:49:26.287Z,43.20
2023-05-16T13:51:52.995Z,42.88
2023-05-16T13:54:21.258Z,42.04
2023-05-16T13:56:48.201Z,41.77
2023-05-16T13:59:20.143Z,42.93
2023-05-16T14:01:54.502Z,43.64
2023-05-16T14:04:22.171Z,42.75
2023-05-16T14:06:49.610Z,42.13
2023-05-16T14:09:16.446Z,42.49
2023-05-16T14:11:43.357Z,43.13
2023-05-16T14:14:11.137Z,43.83
2023-05-16T14:16:38.098Z,43.96
2023-05-16T14:19:06.977Z,43.90
2023-05-16T14:21:34.612Z,43.59
2023-05-16T14:24:01.503Z,43.40
2023-05-16T14:26:28.731Z,42.98
2023-05-16T14:28:56.380Z,43.65
2023-05-16T14:31:23.164Z,44.80
2023-05-16T14:33:50.816Z,45.50
2023-05-16T14:36:17.629Z,45.75
2023-05-16T14:38:44.454Z,45.19
2023-05-16T14:41:11.297Z,45.06
2023-05-16T14:43:38.476Z,45.05
2023-05-16T14:46:05.368Z,43.91
2023-05-16T14:48:33.092Z,43.77
2023-05-16T14:50:59.914Z,43.92
2023-05-16T14:53:26.852Z,44.93
2023-05-16T14:55:54.773Z,45.22
2023-05-16T14:58:21.660Z,43.25
2023-05-16T15:00:48.727Z,43.28
2023-05-16T15:03:17.367Z,41.95
2023-05-16T15:05:44.746Z,43.53
2023-05-16T15:08:11.605Z,41.21
2023-05-16T15:10:39.040Z,40.73
2023-05-16T15:13:06.169Z,41.14
2023-05-16T15:15:33.943Z,45.07
2023-05-16T15:18:01.123Z,46.23
2023-05-16T15:20:28.104Z,46.89
2023-05-16T15:22:55.615Z,47.36
2023-05-16T15:25:22.451Z,47.16
2023-05-16T15:27:49.421Z,45.60
2023-05-16T15:30:16.595Z,44.34
2023-05-16T15:32:44.414Z,45.08
2023-05-16T15:35:11.467Z,46.62
2023-05-16T15:37:38.419Z,44.73
2023-05-16T15:40:06.271Z,43.51
2023-05-16T15:42:33.403Z,43.03
2023-05-16T15:45:00.711Z,43.32
2023-05-16T15:47:27.644Z,43.77
2023-05-16T15:49:54.748Z,46.41
2023-05-16T15:52:22.997Z,47.55
2023-05-16T15:54:50.077Z,47.41
2023-05-16T15:57:16.872Z,45.71
2023-05-16T15:59:44.095Z,46.20
2023-05-16T16:02:13.489Z,45.87
2023-05-16T16:04:40.294Z,47.14
2023-05-16T16:07:07.091Z,48.05
2023-05-16T16:09:34.424Z,48.17
2023-05-16T16:12:01.986Z,46.43
2023-05-16T16:14:30.748Z,49.65
2023-05-16T16:16:57.580Z,50.06
2023-05-16T16:19:25.271Z,50.02
2023-05-16T16:21:52.208Z,50.28
2023-05-16T16:24:19.791Z,50.75
2023-05-16T16:26:48.090Z,49.24
2023-05-16T16:29:15.099Z,47.64
2023-05-16T16:31:41.984Z,47.99
2023-05-16T16:34:09.508Z,55.17
2023-05-16T16:36:36.340Z,52.39
2023-05-16T16:39:05.225Z,48.70
2023-05-16T16:41:33.750Z,47.55
2023-05-16T16:44:01.075Z,47.04
2023-05-16T16:46:28.721Z,47.44
2023-05-16T16:48:56.084Z,47.32
2023-05-16T16:51:22.913Z,46.94
2023-05-16T16:53:49.862Z,46.02
2023-05-16T16:56:16.770Z,45.43
2023-05-16T16:58:43.787Z,45.04
2023-05-16T17:01:12.167Z,44.83
2023-05-16T17:03:40.218Z,44.56
2023-05-16T17:06:07.447Z,44.63
2023-05-16T17:08:35.014Z,44.66
2023-05-16T17:11:04.702Z,44.77
2023-05-16T17:13:33.740Z,45.22
2023-05-16T17:16:00.970Z,45.34
2023-05-16T17:18:28.173Z,45.28
2023-05-16T17:20:55.576Z,45.35
2023-05-16T17:23:22.618Z,45.32
2023-05-16T17:25:49.672Z,44.93
2023-05-16T17:28:16.764Z,45.41
2023-05-16T17:30:43.663Z,45.94
2023-05-16T17:33:11.730Z,45.82
2023-05-16T17:35:40.205Z,45.96
2023-05-16T17:38:06.996Z,45.64
2023-05-16T17:40:35.121Z,45.92
2023-05-16T17:43:02.591Z,46.40
2023-05-16T17:45:30.654Z,47.26
2023-05-16T17:47:57.615Z,47.97
2023-05-16T17:50:28.801Z,48.57
2023-05-16T17:52:55.881Z,48.42
2023-05-16T17:55:22.932Z,48.28
2023-05-16T17:57:50.061Z,47.83
2023-05-16T18:00:19.243Z,47.30
2023-05-16T18:02:46.541Z,47.25
2023-05-16T18:05:15.915Z,47.24
2023-05-16T18:07:43.387Z,46.96
2023-05-16T18:10:10.900Z,47.12
2023-05-16T18:12:43.413Z,46.68
2023-05-16T18:15:14.269Z,46.14
2023-05-16T18:17:41.937Z,46.32
2023-05-16T18:20:10.178Z,46.03
2023-05-16T18:22:40.647Z,46.28
2023-05-16T18:25:09.101Z,46.53
2023-05-16T18:27:36.804Z,46.74
2023-05-16T18:30:05.180Z,46.72
2023-05-16T18:32:32.750Z,50.96
2023-05-16T18:35:02.790Z,66.26
2023-05-16T18:37:30.531Z,68.60
2023-05-16T18:39:57.537Z,62.13
2023-05-16T18:42:25.317Z,65.02
2023-05-16T18:44:52.212Z,67.37
2023-05-16T18:47:20.260Z,66.71
2023-05-16T18:49:47.164Z,67.61
2023-05-16T18:52:14.238Z,62.98
2023-05-16T18:54:41.242Z,60.83
2023-05-16T18:57:08.321Z,65.21
2023-05-16T18:59:35.396Z,63.88
2023-05-16T19:02:04.010Z,63.37
2023-05-16T19:04:31.390Z,62.35
2023-05-16T19:06:58.550Z,60.24
2023-05-16T19:09:25.478Z,60.63
2023-05-16T19:11:52.354Z,59.81
2023-05-16T19:14:19.944Z,58.02
2023-05-16T19:16:46.789Z,57.37
2023-05-16T19:19:14.411Z,56.35
2023-05-16T19:21:42.029Z,60.28
2023-05-16T19:24:09.021Z,62.70
2023-05-16T19:26:36.430Z,61.70
2023-05-16T19:29:03.347Z,61.08
2023-05-16T19:31:30.534Z,65.59
2023-05-16T19:33:57.626Z,65.41
2023-05-16T19:36:24.618Z,68.34
2023-05-16T19:38:51.566Z,68.81
2023-05-16T19:41:18.492Z,65.53
2023-05-16T19:43:45.553Z,67.52
2023-05-16T19:46:12.652Z,64.38
2023-05-16T19:48:39.678Z,63.72
2023-05-16T19:51:08.845Z,63.13
2023-05-16T19:53:35.899Z,61.67
2023-05-16T19:56:04.169Z,62.31
2023-05-16T19:58:31.310Z,60.26
2023-05-16T20:00:58.616Z,59.85
2023-05-16T20:03:26.096Z,62.43
2023-05-16T20:05:53.093Z,62.16
2023-05-16T20:08:20.044Z,61.59
2023-05-16T20:10:47.260Z,60.81
2023-05-16T20:13:17.877Z,69.49
2023-05-16T20:15:46.272Z,72.23
2023-05-16T20:18:17.941Z,69.74
2023-05-16T20:20:44.976Z,69.13
2023-05-16T20:23:11.955Z,66.04
2023-05-16T20:25:39.169Z,63.93
2023-05-16T20:28:06.339Z,62.88
2023-05-16T20:30:33.198Z,61.16
2023-05-16T20:33:00.193Z,63.33
2023-05-16T20:35:27.974Z,61.87
2023-05-16T20:37:55.324Z,60.67
2023-05-16T20:40:22.557Z,59.34
2023-05-16T20:42:49.337Z,59.31
2023-05-16T20:45:16.360Z,58.44
2023-05-16T20:47:43.607Z,56.58
2023-05-16T20:50:10.637Z,55.85
2023-05-16T20:52:37.914Z,56.62
2023-05-16T20:55:05.478Z,56.39
2023-05-16T20:57:32.425Z,57.11
2023-05-16T20:59:59.461Z,57.51
2023-05-16T21:02:26.338Z,64.52
2023-05-16T21:04:53.527Z,68.16
2023-05-16T21:07:21.097Z,66.74
2023-05-16T21:09:47.887Z,67.63
2023-05-16T21:12:14.913Z,67.91
2023-05-16T21:14:43.596Z,66.75
2023-05-16T21:17:10.931Z,66.11
2023-05-16T21:19:38.399Z,64.80
2023-05-16T21:22:05.564Z,62.28
2023-05-16T21:24:35.099Z,61.06
2023-05-16T21:27:20.789Z,60.48
2023-05-16T21:29:47.550Z,65.62
2023-05-16T21:32:16.172Z,63.26
2023-05-16T21:34:43.316Z,63.90
2023-05-16T21:37:13.237Z,79.47
2023-05-16T21:39:40.097Z,83.42
2023-05-16T21:42:07.420Z,85.51
2023-05-16T21:44:34.349Z,80.84
2023-05-16T21:47:01.311Z,71.48
2023-05-16T21:49:28.774Z,68.05
2023-05-16T21:51:55.715Z,64.44
2023-05-16T21:54:22.544Z,61.80
2023-05-16T21:56:49.503Z,59.22
2023-05-16T21:59:16.394Z,58.80
2023-05-16T22:01:43.586Z,57.33
2023-05-16T22:04:11.152Z,56.66
2023-05-16T22:06:38.511Z,56.93
2023-05-16T22:09:05.557Z,57.10
2023-05-16T22:11:32.415Z,56.97
2023-05-16T22:13:59.924Z,56.11
2023-05-16T22:16:26.783Z,55.37
2023-05-16T22:18:53.844Z,55.30
2023-05-16T22:21:21.097Z,56.73
2023-05-16T22:23:48.759Z,58.16
2023-05-16T22:26:16.011Z,59.70
2023-05-16T22:28:43.086Z,59.84
2023-05-16T22:31:10.445Z,60.17
2023-05-16T22:33:37.610Z,59.09
2023-05-16T22:36:05.136Z,59.28
2023-05-16T22:38:32.367Z,59.56
2023-05-16T22:40:59.302Z,59.60
2023-05-16T22:43:26.960Z,59.10
2023-05-16T22:45:53.816Z,59.96
2023-05-16T22:48:20.982Z,60.49
2023-05-16T22:50:47.859Z,60.33
2023-05-16T22:53:14.832Z,60.44
2023-05-16T22:55:41.695Z,61.36
2023-05-16T22:58:08.576Z,61.87
2023-05-16T23:00:36.176Z,62.33
2023-05-16T23:03:03.168Z,62.48
2023-05-16T23:05:31.770Z,62.74
2023-05-16T23:07:58.760Z,63.49
2023-05-16T23:10:25.725Z,63.34
2023-05-16T23:12:53.050Z,63.09
2023-05-16T23:15:20.113Z,63.67
2023-05-16T23:17:47.038Z,64.28
2023-05-16T23:20:14.011Z,64.33
2023-05-16T23:22:41.879Z,63.98
2023-05-16T23:25:09.259Z,63.84
2023-05-16T23:27:36.673Z,63.80
2023-05-16T23:30:04.645Z,63.93
2023-05-16T23:32:32.219Z,63.07
2023-05-16T23:34:59.362Z,63.25
2023-05-16T23:37:26.273Z,63.76
2023-05-16T23:39:53.157Z,64.09
2023-05-16T23:42:19.966Z,64.15
2023-05-16T23:44:46.822Z,64.47
2023-05-16T23:47:13.668Z,64.92
2023-05-16T23:49:40.383Z,65.03
2023-05-16T23:52:07.688Z,63.98
2023-05-16T23:54:34.812Z,63.35
2023-05-16T23:57:01.879Z,63.70
2023-05-16T23:59:29.944Z,62.58
